Terminal Aerodrome Forecast
Issued by NWS Buffalo, NY

Home | Current Version | Previous Version | Text Only | Print | Product List | Glossary On
Versions: 1 2 3 4 5 6 7 8 9 10 11 12 13 14 15 16 17 18 19 20 21 22 23 24 25 26
000
FTUS41 KBUF 241730
TAFBUF
TAF
KBUF 241730Z 2418/2518 23015KT P6SM FEW020 SCT070
     FM242100 26012KT P6SM SCT060
     FM250500 22005KT P6SM FEW060
     FM251200 24010G18KT P6SM FEW035
     FM251700 24018G25KT P6SM BKN040=

USA.gov is the U.S. government's official web portal to all federal, state and local government web resources and services.